Time;durP1;ratioP1;P1;durP2;ratioP2;P2;SDS_P1;SDS_P2;PMS_P1;PMS_P2;Temp;Humidity;BMP_temperature;BMP_pressure;BME280_temperature;BME280_humidity;BME280_pressure;Samples;Min_cycle;Max_cycle;Signal;HPM_P1;HPM_P2
2023/08/01 00:00:11;;;;;;;14.80;5.88;;;16.60;99.90;;;;;;5002015;28;20041;-80
2023/08/01 00:02:49;;;;;;;12.88;5.65;;;16.50;99.90;;;;;;5020479;28;20041;-80
2023/08/01 00:05:15;;;;;;;13.00;5.03;;;16.60;99.90;;;;;;5001978;28;20041;-80
2023/08/01 00:07:44;;;;;;;14.65;5.65;;;16.50;99.90;;;;;;5016502;28;20045;-80
2023/08/01 00:10:10;;;;;;;11.23;5.13;;;16.50;99.90;;;;;;4999209;28;20490;-80
2023/08/01 00:12:36;;;;;;;11.15;5.05;;;16.50;99.90;;;;;;5010564;28;20072;-80
2023/08/01 00:15:05;;;;;;;11.82;4.78;;;16.50;99.90;;;;;;5021944;28;21173;-80
2023/08/01 00:17:31;;;;;;;10.13;4.72;;;16.50;99.90;;;;;;5001851;28;20084;-80
2023/08/01 00:20:00;;;;;;;17.52;5.63;;;16.60;99.90;;;;;;5018333;28;20053;-80
2023/08/01 00:22:26;;;;;;;15.18;4.82;;;16.50;99.90;;;;;;5008276;28;20029;-80
2023/08/01 00:24:58;;;;;;;11.27;4.57;;;16.50;99.90;;;;;;5035430;28;20167;-80
2023/08/01 00:27:27;;;;;;;;;;;16.50;99.90;;;;;;5007565;28;20061;-80
2023/08/01 00:29:53;;;;;;;16.13;4.45;;;16.50;99.90;;;;;;5007640;28;19949;-80
2023/08/01 00:32:36;;;;;;;12.30;4.40;;;16.50;99.90;;;;;;5036002;28;20037;-80
2023/08/01 00:35:17;;;;;;;14.05;4.72;;;16.50;99.90;;;;;;5012410;28;20041;-81
2023/08/01 00:37:48;;;;;;;12.48;4.72;;;16.40;99.90;;;;;;5017491;28;20042;-80
2023/08/01 00:40:24;;;;;;;13.85;4.55;;;16.40;99.90;;;;;;5005151;28;20045;-81
2023/08/01 00:42:56;;;;;;;12.05;4.80;;;16.30;99.90;;;;;;5031696;28;20042;-80
2023/08/01 00:45:32;;;;;;;11.60;4.68;;;16.40;99.90;;;;;;5003904;28;20108;-81
2023/08/01 00:47:58;;;;;;;10.25;4.07;;;16.40;99.90;;;;;;5013031;28;20055;-80
2023/08/01 00:50:24;;;;;;;12.77;4.32;;;16.40;99.90;;;;;;5019204;28;20120;-80
2023/08/01 00:52:52;;;;;;;13.60;4.18;;;16.40;99.90;;;;;;5030297;28;20055;-80
2023/08/01 00:55:19;;;;;;;10.65;5.30;;;16.30;99.90;;;;;;5024318;28;20049;-80
2023/08/01 00:57:45;;;;;;;12.55;5.10;;;16.30;99.90;;;;;;5020973;28;20056;-81
2023/08/01 01:00:11;;;;;;;8.30;4.47;;;16.30;99.90;;;;;;5021930;28;20041;-81
2023/08/01 01:02:37;;;;;;;9.25;4.43;;;16.30;99.90;;;;;;5021046;28;20041;-80
2023/08/01 01:05:03;;;;;;;12.52;4.90;;;16.30;99.90;;;;;;5026431;28;20140;-80
2023/08/01 01:07:30;;;;;;;10.45;4.90;;;16.30;99.90;;;;;;5013804;28;20397;-80
2023/08/01 01:09:56;;;;;;;15.07;5.57;;;16.30;99.90;;;;;;5018527;28;20056;-80
2023/08/01 01:12:21;;;;;;;14.63;5.70;;;16.30;99.90;;;;;;5017241;28;20115;-79
2023/08/01 01:14:47;;;;;;;10.68;5.78;;;16.30;99.90;;;;;;5018975;28;20063;-80
2023/08/01 01:17:13;;;;;;;12.90;5.88;;;16.20;99.90;;;;;;5007463;28;20037;-80
2023/08/01 01:19:39;;;;;;;13.60;5.85;;;16.30;99.90;;;;;;5014343;28;20041;-80
2023/08/01 01:22:06;;;;;;;16.55;6.50;;;16.20;99.90;;;;;;5011136;28;20501;-81
2023/08/01 01:24:33;;;;;;;16.83;5.97;;;16.20;99.90;;;;;;5019852;28;20121;-79
2023/08/01 01:26:59;;;;;;;12.60;6.38;;;16.10;99.90;;;;;;5017938;28;20555;-80
2023/08/01 01:29:27;;;;;;;14.65;5.78;;;16.20;99.90;;;;;;5027236;28;20481;-80
2023/08/01 01:31:53;;;;;;;14.07;6.18;;;16.10;99.90;;;;;;5020036;28;20049;-80
2023/08/01 01:34:19;;;;;;;14.25;6.22;;;16.10;99.90;;;;;;5018719;28;20046;-80
2023/08/01 01:36:45;;;;;;;15.80;6.55;;;16.10;99.90;;;;;;5013718;28;20108;-81
2023/08/01 01:39:11;;;;;;;15.93;6.55;;;16.10;99.90;;;;;;5016580;28;20044;-80
2023/08/01 01:41:36;;;;;;;11.48;5.78;;;16.10;99.90;;;;;;5006340;28;20029;-80
2023/08/01 01:44:02;;;;;;;15.15;5.82;;;16.00;99.90;;;;;;5034992;28;20033;-80
2023/08/01 01:46:27;;;;;;;13.88;5.43;;;16.00;99.90;;;;;;5019589;28;20076;-80
2023/08/01 01:48:53;;;;;;;17.48;6.00;;;16.00;99.90;;;;;;5016991;28;20038;-80
2023/08/01 01:51:21;;;;;;;15.00;6.03;;;16.00;99.90;;;;;;5017022;28;20037;-80
2023/08/01 01:53:47;;;;;;;13.18;5.45;;;15.90;99.90;;;;;;5015914;28;20038;-80
2023/08/01 01:56:12;;;;;;;13.52;5.40;;;15.90;99.90;;;;;;5018776;28;20037;-81
2023/08/01 01:58:38;;;;;;;14.43;6.03;;;15.90;99.90;;;;;;5027610;28;20052;-80
2023/08/01 02:01:03;;;;;;;13.10;5.50;;;15.90;99.90;;;;;;5027566;28;20038;-80
2023/08/01 02:03:29;;;;;;;13.32;5.22;;;15.90;99.90;;;;;;5010891;28;20033;-81
2023/08/01 02:05:55;;;;;;;14.05;5.50;;;15.90;99.90;;;;;;5013450;28;20045;-81
2023/08/01 02:08:20;;;;;;;11.07;5.20;;;15.80;99.90;;;;;;5028276;28;20063;-80
2023/08/01 02:10:46;;;;;;;18.10;5.50;;;15.80;99.90;;;;;;5027313;28;20075;-80
2023/08/01 02:13:11;;;;;;;9.98;5.50;;;15.80;99.90;;;;;;5034312;28;20069;-80
2023/08/01 02:15:37;;;;;;;11.05;5.38;;;15.90;99.90;;;;;;5021459;28;20400;-80
2023/08/01 02:18:03;;;;;;;11.63;5.45;;;15.80;99.90;;;;;;5017886;28;20112;-80
2023/08/01 02:20:29;;;;;;;17.85;5.53;;;15.90;99.90;;;;;;5024687;28;20048;-80
2023/08/01 02:22:54;;;;;;;13.63;5.00;;;15.90;99.90;;;;;;5034527;28;20051;-80
2023/08/01 02:25:20;;;;;;;13.60;5.13;;;15.90;99.90;;;;;;5038188;28;20063;-81
2023/08/01 02:27:45;;;;;;;13.38;5.13;;;15.80;99.90;;;;;;5028503;28;20092;-79
2023/08/01 02:30:11;;;;;;;12.07;5.00;;;15.80;99.90;;;;;;5031664;28;20049;-80
2023/08/01 02:32:37;;;;;;;12.55;5.68;;;15.80;99.90;;;;;;5043743;28;20037;-80
2023/08/01 02:35:03;;;;;;;13.88;5.55;;;15.80;99.90;;;;;;4999099;28;20060;-80
2023/08/01 02:37:31;;;;;;;11.43;5.55;;;15.80;99.90;;;;;;5015976;28;20095;-80
2023/08/01 02:39:57;;;;;;;12.65;5.63;;;15.80;99.90;;;;;;5028732;28;20064;-80
2023/08/01 02:42:22;;;;;;;11.35;4.93;;;15.80;99.90;;;;;;5029477;28;20045;-80
2023/08/01 02:44:48;;;;;;;15.93;5.22;;;15.70;99.90;;;;;;5018134;28;20481;-80
2023/08/01 02:47:13;;;;;;;10.88;5.20;;;15.70;99.90;;;;;;5019111;28;20049;-81
2023/08/01 02:49:39;;;;;;;12.63;4.88;;;15.70;99.90;;;;;;5027257;28;20120;-82
2023/08/01 02:52:05;;;;;;;14.65;4.93;;;15.70;99.90;;;;;;5018885;28;20038;-80
2023/08/01 02:54:30;;;;;;;14.40;4.72;;;15.60;99.90;;;;;;4994366;28;20037;-81
2023/08/01 02:56:56;;;;;;;15.98;5.72;;;15.60;99.90;;;;;;5017497;28;20052;-81
2023/08/01 02:59:22;;;;;;;12.95;4.82;;;15.60;99.90;;;;;;5004196;28;20044;-81
2023/08/01 03:01:47;;;;;;;11.18;4.97;;;15.60;99.90;;;;;;5033609;28;20045;-81
2023/08/01 03:04:13;;;;;;;14.07;4.63;;;15.50;99.90;;;;;;5031788;28;20038;-81
2023/08/01 03:06:39;;;;;;;17.60;5.35;;;15.60;99.90;;;;;;5017636;28;20944;-80
2023/08/01 03:09:07;;;;;;;12.75;4.60;;;15.50;99.90;;;;;;5014190;28;20067;-81
2023/08/01 03:11:39;;;;;;;12.63;5.10;;;15.50;99.90;;;;;;5030259;28;20045;-81
2023/08/01 03:14:05;;;;;;;13.88;4.95;;;15.50;99.90;;;;;;5014169;28;20037;-80
2023/08/01 03:16:31;;;;;;;16.40;5.60;;;15.50;99.90;;;;;;5015461;28;20091;-80
2023/08/01 03:18:57;;;;;;;14.07;5.40;;;15.50;99.90;;;;;;5043840;28;20053;-81
2023/08/01 03:21:26;;;;;;;13.70;5.30;;;15.50;99.90;;;;;;5030428;28;20044;-81
2023/08/01 03:23:52;;;;;;;13.18;5.50;;;15.50;99.90;;;;;;5030924;28;20045;-80
2023/08/01 03:26:18;;;;;;;13.10;5.63;;;15.50;99.90;;;;;;5008200;28;20056;-81
2023/08/01 03:28:43;;;;;;;15.07;5.80;;;15.50;99.90;;;;;;5017884;28;20048;-81
2023/08/01 03:31:09;;;;;;;15.68;5.18;;;15.50;99.90;;;;;;5041966;28;20033;-81
2023/08/01 03:33:35;;;;;;;14.80;5.93;;;15.50;99.90;;;;;;5013152;28;20048;-80
2023/08/01 03:36:00;;;;;;;17.02;5.93;;;15.50;99.90;;;;;;5008699;28;20037;-79
2023/08/01 03:38:26;;;;;;;17.55;5.55;;;15.50;99.90;;;;;;5019833;28;20037;-78
2023/08/01 03:40:52;;;;;;;10.05;4.50;;;15.50;99.90;;;;;;5029322;28;20029;-78
2023/08/01 03:43:23;;;;;;;5.78;3.05;;;15.60;99.90;;;;;;5017176;28;20119;-78
2023/08/01 03:45:49;;;;;;;8.07;3.00;;;15.50;99.90;;;;;;5032913;28;20041;-78
2023/08/01 03:48:14;;;;;;;8.90;3.15;;;15.50;99.90;;;;;;5020100;28;20459;-78
2023/08/01 03:50:40;;;;;;;5.13;2.60;;;15.50;99.90;;;;;;5046613;28;20147;-77
2023/08/01 03:53:05;;;;;;;5.35;2.35;;;15.50;99.90;;;;;;5020978;28;20049;-78
2023/08/01 03:55:32;;;;;;;7.25;3.10;;;15.50;99.90;;;;;;5018352;28;20081;-78
2023/08/01 03:57:58;;;;;;;6.65;2.63;;;15.50;99.90;;;;;;5004314;28;20509;-77
2023/08/01 04:00:24;;;;;;;6.22;2.78;;;15.50;99.90;;;;;;5029868;28;20515;-77
2023/08/01 04:02:49;;;;;;;4.93;2.40;;;15.40;99.90;;;;;;5020185;28;20037;-79
2023/08/01 04:05:15;;;;;;;7.93;2.78;;;15.40;99.90;;;;;;5018949;28;20037;-77
2023/08/01 04:07:41;;;;;;;4.15;2.25;;;15.40;99.90;;;;;;5036113;28;20041;-77
2023/08/01 04:10:07;;;;;;;6.07;2.22;;;15.40;99.90;;;;;;5022488;28;20098;-77
2023/08/01 04:12:34;;;;;;;6.25;2.22;;;15.40;99.90;;;;;;5015275;28;20132;-77
2023/08/01 04:15:00;;;;;;;3.42;2.20;;;15.40;99.90;;;;;;5047010;28;20037;-77
2023/08/01 04:17:26;;;;;;;4.22;2.00;;;15.40;99.90;;;;;;5025211;28;20060;-78
2023/08/01 04:19:52;;;;;;;4.60;2.00;;;15.30;99.90;;;;;;5028302;28;20112;-78
2023/08/01 04:22:18;;;;;;;6.07;2.25;;;15.30;99.90;;;;;;5032988;28;20041;-78
2023/08/01 04:24:44;;;;;;;2.95;1.77;;;15.30;99.90;;;;;;5019228;28;20539;-79
2023/08/01 04:27:09;;;;;;;4.28;2.10;;;15.20;99.90;;;;;;5020362;28;20509;-77
2023/08/01 04:29:35;;;;;;;6.70;2.47;;;15.30;99.90;;;;;;5037766;28;20033;-77
2023/08/01 04:32:01;;;;;;;4.10;2.10;;;15.30;99.90;;;;;;5021752;28;20426;-78
2023/08/01 04:34:26;;;;;;;5.30;2.20;;;15.20;99.90;;;;;;5020784;28;20044;-78
2023/08/01 04:36:52;;;;;;;4.38;2.03;;;15.20;99.90;;;;;;5019114;28;20041;-76
2023/08/01 04:39:17;;;;;;;6.30;2.28;;;15.30;99.90;;;;;;5015759;28;20068;-77
2023/08/01 04:41:43;;;;;;;3.90;1.85;;;15.20;99.90;;;;;;5020462;28;20114;-77
2023/08/01 04:44:09;;;;;;;5.32;2.10;;;15.20;99.90;;;;;;5032850;28;20108;-78
2023/08/01 04:46:34;;;;;;;3.47;2.10;;;15.20;99.90;;;;;;5021599;28;20545;-77
2023/08/01 04:49:00;;;;;;;5.53;2.35;;;15.30;99.90;;;;;;5021062;28;20041;-78
2023/08/01 04:51:26;;;;;;;4.03;2.00;;;15.30;99.90;;;;;;5026894;28;20065;-78
2023/08/01 04:53:52;;;;;;;5.72;1.95;;;15.30;99.90;;;;;;5023468;28;20038;-77
2023/08/01 04:56:17;;;;;;;5.70;2.10;;;15.30;99.90;;;;;;5024385;28;20072;-77
2023/08/01 04:58:43;;;;;;;5.47;2.03;;;15.30;99.90;;;;;;5035091;28;20037;-78
2023/08/01 05:01:12;;;;;;;4.95;1.85;;;15.40;99.90;;;;;;5040241;28;20096;-78
2023/08/01 05:03:41;;;;;;;7.18;2.10;;;15.40;99.90;;;;;;5007027;28;20033;-77
2023/08/01 05:06:07;;;;;;;5.65;2.05;;;15.40;99.90;;;;;;5005184;28;20113;-78
2023/08/01 05:08:33;;;;;;;3.67;2.20;;;15.40;99.90;;;;;;5030359;28;20040;-77
2023/08/01 05:10:59;;;;;;;3.83;2.40;;;15.40;99.90;;;;;;5006039;28;20033;-78
2023/08/01 05:13:26;;;;;;;6.65;2.25;;;15.40;99.90;;;;;;5006390;28;20033;-78
2023/08/01 05:15:52;;;;;;;6.32;2.13;;;15.50;99.90;;;;;;5015263;28;20063;-80
2023/08/01 05:18:18;;;;;;;6.15;2.30;;;15.50;99.90;;;;;;5023747;28;20089;-79
2023/08/01 05:20:44;;;;;;;6.10;2.50;;;15.50;99.90;;;;;;5010213;28;20069;-79
2023/08/01 05:23:13;;;;;;;6.82;2.58;;;15.50;99.90;;;;;;5034252;28;20099;-78
2023/08/01 05:25:38;;;;;;;6.57;2.83;;;15.50;99.90;;;;;;5014060;28;20037;-79
2023/08/01 05:28:04;;;;;;;5.18;2.95;;;15.40;99.90;;;;;;5036680;28;20462;-78
2023/08/01 05:30:30;;;;;;;5.18;2.85;;;15.40;99.90;;;;;;5024859;28;20084;-78
2023/08/01 05:32:55;;;;;;;7.03;3.08;;;15.40;99.90;;;;;;5028870;28;20060;-78
2023/08/01 05:35:21;;;;;;;7.88;2.70;;;15.40;99.90;;;;;;5016853;28;20044;-78
2023/08/01 05:37:50;;;;;;;5.18;2.85;;;15.40;99.90;;;;;;5018405;28;20091;-78
2023/08/01 05:40:16;;;;;;;5.35;2.88;;;15.40;99.90;;;;;;5002497;28;20041;-77
2023/08/01 05:42:42;;;;;;;6.93;3.10;;;15.30;99.90;;;;;;5021776;28;20041;-77
2023/08/01 05:45:08;;;;;;;7.43;2.78;;;15.30;99.90;;;;;;5017187;28;20033;-77
2023/08/01 05:47:35;;;;;;;5.35;2.53;;;15.30;99.90;;;;;;5015085;28;20052;-77
2023/08/01 05:50:01;;;;;;;7.35;2.47;;;15.30;99.90;;;;;;5026157;28;20422;-79
2023/08/01 05:52:26;;;;;;;4.78;2.58;;;15.30;99.90;;;;;;5005569;28;20041;-77
2023/08/01 05:54:52;;;;;;;6.72;2.40;;;15.30;99.90;;;;;;5026052;28;20592;-78
2023/08/01 05:57:17;;;;;;;6.47;2.60;;;15.30;99.90;;;;;;5023498;28;20383;-77
2023/08/01 05:59:43;;;;;;;5.45;2.58;;;15.30;99.90;;;;;;5010655;28;20050;-77
2023/08/01 06:02:09;;;;;;;7.45;2.80;;;15.20;99.90;;;;;;5011371;28;20038;-79
2023/08/01 06:04:34;;;;;;;9.13;2.55;;;15.30;99.90;;;;;;5023879;28;20404;-78
2023/08/01 06:07:00;;;;;;;5.82;2.75;;;15.20;99.90;;;;;;5012853;28;20476;-79
2023/08/01 06:09:26;;;;;;;6.00;2.65;;;15.20;99.90;;;;;;5010081;28;20043;-78
2023/08/01 06:11:51;;;;;;;5.45;2.40;;;15.30;99.90;;;;;;5011699;28;20052;-78
2023/08/01 06:14:17;;;;;;;7.53;2.55;;;15.30;99.90;;;;;;5013862;28;20041;-79
2023/08/01 06:16:43;;;;;;;4.40;2.22;;;15.30;99.90;;;;;;5008339;28;20374;-78
2023/08/01 06:19:08;;;;;;;8.05;2.22;;;15.30;99.90;;;;;;5024539;28;20042;-78
2023/08/01 06:21:34;;;;;;;8.27;2.35;;;15.40;99.90;;;;;;5013079;28;20040;-78
2023/08/01 06:24:00;;;;;;;8.32;2.30;;;15.40;99.90;;;;;;5004641;28;20498;-78
2023/08/01 06:26:25;;;;;;;6.13;2.60;;;15.40;99.90;;;;;;5010730;28;20037;-79
2023/08/01 06:28:53;;;;;;;5.10;2.05;;;15.40;99.90;;;;;;5006432;28;20045;-79
2023/08/01 06:31:22;;;;;;;5.75;2.38;;;15.40;99.90;;;;;;5033373;28;20071;-79
2023/08/01 06:33:50;;;;;;;5.47;2.17;;;15.50;99.90;;;;;;5011737;28;20070;-79
2023/08/01 06:36:17;;;;;;;5.65;2.20;;;15.50;99.90;;;;;;4999593;28;20152;-79
2023/08/01 06:38:43;;;;;;;3.83;1.90;;;15.50;99.90;;;;;;5015626;28;20139;-80
2023/08/01 06:41:08;;;;;;;5.05;2.00;;;15.50;99.90;;;;;;5013408;28;20077;-79
2023/08/01 06:43:34;;;;;;;7.72;2.15;;;15.50;99.90;;;;;;5022048;28;20072;-79
2023/08/01 06:46:00;;;;;;;5.88;2.33;;;15.60;99.90;;;;;;5014020;28;20485;-79
2023/08/01 06:48:25;;;;;;;7.32;1.90;;;15.60;99.90;;;;;;5014348;28;20091;-79
2023/08/01 06:50:51;;;;;;;7.28;2.00;;;15.60;99.90;;;;;;4994730;28;20042;-79
2023/08/01 06:53:17;;;;;;;3.63;2.22;;;15.60;99.90;;;;;;5025142;28;20049;-79
2023/08/01 06:55:42;;;;;;;8.38;2.42;;;15.60;99.90;;;;;;5008267;28;20041;-79
2023/08/01 06:58:08;;;;;;;5.93;2.15;;;15.60;99.90;;;;;;4997060;28;20042;-79
2023/08/01 07:00:34;;;;;;;4.30;2.10;;;15.60;99.90;;;;;;5000795;28;20038;-79
2023/08/01 07:02:59;;;;;;;5.45;2.08;;;15.60;99.90;;;;;;5022152;28;20112;-79
2023/08/01 07:05:25;;;;;;;6.50;2.30;;;15.60;99.90;;;;;;5024714;28;20029;-79
2023/08/01 07:07:50;;;;;;;5.38;2.25;;;15.60;99.90;;;;;;4994984;28;20536;-79
2023/08/01 07:10:16;;;;;;;7.93;2.60;;;15.60;99.90;;;;;;5001513;28;20041;-79
2023/08/01 07:12:42;;;;;;;6.88;2.03;;;15.70;99.90;;;;;;5010723;28;20056;-79
2023/08/01 07:15:08;;;;;;;5.88;2.10;;;15.70;99.90;;;;;;5011772;28;20042;-80
2023/08/01 07:17:34;;;;;;;6.82;2.30;;;15.80;99.90;;;;;;5032986;28;20160;-80
2023/08/01 07:19:59;;;;;;;5.28;2.45;;;15.90;99.90;;;;;;5008630;28;20042;-80
2023/08/01 07:22:25;;;;;;;8.85;2.90;;;16.00;99.90;;;;;;5021564;28;20644;-79
2023/08/01 07:24:54;;;;;;;6.88;2.47;;;16.20;99.90;;;;;;5034414;28;20041;-79
2023/08/01 07:27:20;;;;;;;6.43;2.70;;;16.20;99.90;;;;;;5020133;28;20036;-80
2023/08/01 07:29:46;;;;;;;7.28;2.50;;;16.30;99.90;;;;;;5026352;28;20044;-78
2023/08/01 07:32:12;;;;;;;6.65;2.70;;;16.40;99.90;;;;;;5015719;28;20038;-79
2023/08/01 07:34:37;;;;;;;8.43;2.28;;;16.40;99.90;;;;;;5040742;28;20048;-79
2023/08/01 07:37:03;;;;;;;8.25;2.88;;;16.50;99.90;;;;;;5019867;28;20040;-79
2023/08/01 07:39:29;;;;;;;7.72;2.72;;;16.50;99.90;;;;;;5017870;28;20046;-79
2023/08/01 07:41:56;;;;;;;11.10;3.08;;;16.60;99.90;;;;;;5016072;28;20094;-79
2023/08/01 07:44:21;;;;;;;6.60;2.60;;;16.60;99.90;;;;;;4994727;28;20029;-79
2023/08/01 07:46:47;;;;;;;6.70;2.60;;;16.60;99.90;;;;;;5018782;28;20041;-79
2023/08/01 07:49:13;;;;;;;8.57;2.78;;;16.60;99.90;;;;;;5018928;28;20405;-79
2023/08/01 07:51:38;;;;;;;7.72;2.70;;;16.60;99.90;;;;;;5022485;28;20073;-78
2023/08/01 07:54:04;;;;;;;7.97;2.90;;;16.50;99.90;;;;;;5002577;28;20041;-78
2023/08/01 07:56:30;;;;;;;9.13;2.90;;;16.40;99.90;;;;;;5015418;28;20044;-78
2023/08/01 07:58:55;;;;;;;6.60;2.78;;;16.40;99.90;;;;;;5015742;28;20034;-78
2023/08/01 08:01:21;;;;;;;4.95;2.53;;;16.30;99.90;;;;;;5007125;28;20037;-78
2023/08/01 08:03:46;;;;;;;7.97;3.05;;;16.20;99.90;;;;;;5016722;28;20049;-79
2023/08/01 08:06:12;;;;;;;9.52;3.08;;;16.20;99.90;;;;;;5009195;28;20037;-78
2023/08/01 08:08:38;;;;;;;7.97;2.90;;;16.20;99.90;;;;;;5017458;28;20095;-78
2023/08/01 08:11:04;;;;;;;7.75;3.25;;;16.20;99.90;;;;;;5017839;28;20112;-79
2023/08/01 08:13:29;;;;;;;8.15;3.03;;;16.20;99.90;;;;;;5004562;28;20033;-78
2023/08/01 08:15:59;;;;;;;9.77;3.17;;;16.20;99.90;;;;;;5013075;28;20084;-78
2023/08/01 08:18:24;;;;;;;13.25;3.70;;;16.10;99.90;;;;;;5016468;28;20140;-79
2023/08/01 08:20:50;;;;;;;7.10;2.85;;;16.20;99.90;;;;;;5015527;28;20050;-79
2023/08/01 08:23:16;;;;;;;9.55;3.42;;;16.20;99.90;;;;;;5016920;28;20033;-78
2023/08/01 08:25:44;;;;;;;7.68;3.42;;;16.20;99.90;;;;;;5013945;28;20107;-79
2023/08/01 08:28:11;;;;;;;10.20;3.50;;;16.30;99.90;;;;;;5012033;28;20049;-79
2023/08/01 08:30:37;;;;;;;12.38;3.55;;;16.30;99.90;;;;;;5008379;28;20072;-79
2023/08/01 08:33:04;;;;;;;11.23;3.80;;;16.40;99.90;;;;;;5023771;28;20130;-79
2023/08/01 08:35:36;;;;;;;11.07;3.58;;;16.50;99.90;;;;;;5006303;28;20088;-78
2023/08/01 08:38:06;;;;;;;8.40;3.55;;;16.50;99.90;;;;;;5015252;28;20651;-79
2023/08/01 08:40:33;;;;;;;12.20;3.65;;;16.60;99.90;;;;;;5013994;28;20038;-79
2023/08/01 08:43:03;;;;;;;13.35;3.72;;;16.60;99.90;;;;;;5023728;28;20463;-79
2023/08/01 08:45:33;;;;;;;9.90;4.55;;;16.70;99.90;;;;;;5015009;28;20037;-80
2023/08/01 08:48:02;;;;;;;11.95;3.88;;;16.70;99.90;;;;;;5009354;28;20162;-79
2023/08/01 08:50:30;;;;;;;19.20;4.60;;;16.80;99.90;;;;;;5012503;28;20045;-79
2023/08/01 08:52:57;;;;;;;11.95;3.38;;;16.80;99.90;;;;;;5012754;28;20057;-78
2023/08/01 08:55:26;;;;;;;9.77;3.47;;;16.80;99.90;;;;;;4992682;28;20397;-78
2023/08/01 08:57:52;;;;;;;10.43;3.53;;;16.70;99.90;;;;;;5012172;28;20057;-78
2023/08/01 09:00:19;;;;;;;10.27;3.22;;;16.70;99.90;;;;;;5017482;28;20056;-78
2023/08/01 09:02:45;;;;;;;11.82;3.80;;;16.60;99.90;;;;;;5016352;28;20478;-78
2023/08/01 09:05:10;;;;;;;10.55;3.50;;;16.50;99.90;;;;;;5010279;28;20116;-77
2023/08/01 09:07:40;;;;;;;12.48;4.07;;;16.40;99.90;;;;;;5016615;28;20045;-78
2023/08/01 09:10:07;;;;;;;11.73;3.80;;;16.30;99.90;;;;;;5014160;28;20068;-78
2023/08/01 09:12:34;;;;;;;13.52;4.50;;;16.30;99.90;;;;;;5012865;28;20099;-78
2023/08/01 09:15:00;;;;;;;13.43;3.42;;;16.30;99.90;;;;;;5040391;28;20041;-78
2023/08/01 09:17:26;;;;;;;9.85;3.65;;;16.20;99.90;;;;;;5001148;28;20040;-78
2023/08/01 09:20:02;;;;;;;8.73;3.47;;;16.20;99.90;;;;;;5012248;28;21702;-79
2023/08/01 09:22:28;;;;;;;9.50;3.33;;;16.20;99.90;;;;;;5008028;28;20041;-80
2023/08/01 09:24:54;;;;;;;10.10;3.42;;;16.20;99.90;;;;;;5033927;28;20038;-79
2023/08/01 09:27:22;;;;;;;8.95;3.25;;;16.20;99.90;;;;;;5032611;28;20400;-79
2023/08/01 09:29:47;;;;;;;10.13;3.83;;;16.10;99.90;;;;;;5026786;28;20045;-79
2023/08/01 09:32:14;;;;;;;9.68;3.42;;;16.20;99.90;;;;;;5007706;28;20098;-78
2023/08/01 09:34:42;;;;;;;11.38;3.90;;;16.10;99.90;;;;;;5017616;28;20046;-79
2023/08/01 09:37:07;;;;;;;11.68;3.63;;;16.10;99.90;;;;;;5007587;28;21768;-79
2023/08/01 09:39:33;;;;;;;11.38;3.78;;;16.10;99.90;;;;;;5006820;28;20099;-79
2023/08/01 09:42:00;;;;;;;10.40;3.65;;;16.10;99.90;;;;;;5005447;28;20550;-80
2023/08/01 09:44:28;;;;;;;11.85;4.20;;;16.10;99.90;;;;;;5015387;28;20052;-79
2023/08/01 09:47:01;;;;;;;11.38;3.90;;;16.20;99.90;;;;;;5020644;28;20467;-79
2023/08/01 09:49:28;;;;;;;10.50;4.07;;;16.20;99.90;;;;;;5013940;28;20426;-79
2023/08/01 09:51:54;;;;;;;11.90;4.13;;;16.20;99.90;;;;;;4991584;28;20099;-80
2023/08/01 09:54:21;;;;;;;11.50;4.38;;;16.20;99.90;;;;;;5004148;28;20049;-80
2023/08/01 09:56:49;;;;;;;8.27;3.90;;;16.20;99.90;;;;;;5007493;28;20112;-80
2023/08/01 09:59:25;;;;;;;12.60;4.40;;;16.20;99.90;;;;;;5011094;28;20038;-80
2023/08/01 10:01:53;;;;;;;12.30;4.07;;;16.20;99.90;;;;;;5015637;28;20044;-80
2023/08/01 10:04:30;;;;;;;9.02;3.30;;;16.20;99.90;;;;;;5034816;28;20076;-79
2023/08/01 10:07:23;;;;;;;7.50;2.40;;;16.20;99.90;;;;;;5011009;28;20494;-80
2023/08/01 10:09:49;;;;;;;7.28;2.67;;;16.30;99.90;;;;;;4986323;28;20605;-79
2023/08/01 10:12:18;;;;;;;6.70;2.47;;;16.20;99.90;;;;;;5004134;28;20398;-79
2023/08/01 10:14:44;;;;;;;8.13;2.88;;;16.20;99.90;;;;;;5027125;28;20037;-79
2023/08/01 10:17:11;;;;;;;6.35;2.60;;;16.20;99.90;;;;;;5010813;28;20042;-79
2023/08/01 10:19:37;;;;;;;4.78;2.70;;;16.20;99.90;;;;;;5025268;28;20445;-79
2023/08/01 10:22:06;;;;;;;6.80;2.95;;;16.20;99.90;;;;;;5008864;28;20371;-80
2023/08/01 10:24:32;;;;;;;7.20;2.75;;;16.20;99.90;;;;;;5008352;28;20124;-80
2023/08/01 10:27:08;;;;;;;8.05;2.40;;;16.30;99.90;;;;;;5009521;28;20094;-80
2023/08/01 10:29:37;;;;;;;6.88;2.50;;;16.40;99.90;;;;;;5006546;28;20044;-80
2023/08/01 10:32:03;;;;;;;10.38;2.67;;;16.40;99.90;;;;;;5018883;28;20049;-80
2023/08/01 10:34:28;;;;;;;7.20;2.55;;;16.40;99.90;;;;;;5005401;28;20333;-81
2023/08/01 10:36:58;;;;;;;7.60;2.47;;;16.50;99.90;;;;;;5005463;28;20409;-80
2023/08/01 10:39:25;;;;;;;4.25;2.30;;;16.60;99.90;;;;;;5009688;28;20130;-81
2023/08/01 10:41:59;;;;;;;9.30;2.63;;;16.70;99.90;;;;;;5007339;28;20044;-81
2023/08/01 10:44:25;;;;;;;8.00;2.55;;;16.70;99.90;;;;;;5028628;28;20067;-81
2023/08/01 10:46:56;;;;;;;8.50;2.90;;;16.70;99.90;;;;;;5002676;28;20366;-80
2023/08/01 10:49:40;;;;;;;11.23;3.20;;;16.80;99.90;;;;;;5011124;28;20037;-80
2023/08/01 10:52:23;;;;;;;8.63;3.58;;;16.70;99.90;;;;;;5011534;28;20349;-79
2023/08/01 10:54:58;;;;;;;6.63;2.28;;;16.70;99.90;;;;;;5007717;28;20063;-78
2023/08/01 10:57:24;;;;;;;5.20;1.70;;;16.60;99.90;;;;;;5005446;28;20046;-78
2023/08/01 10:59:49;;;;;;;3.47;1.80;;;16.50;99.90;;;;;;5005897;28;20044;-79
2023/08/01 11:02:31;;;;;;;7.13;1.90;;;16.40;99.90;;;;;;4992674;28;20025;-79
2023/08/01 11:05:00;;;;;;;7.13;2.00;;;16.30;99.90;;;;;;5001223;28;20033;-79
2023/08/01 11:07:26;;;;;;;9.15;2.17;;;16.20;99.90;;;;;;5007202;28;20317;-79
2023/08/01 11:10:11;;;;;;;7.57;2.58;;;16.20;99.90;;;;;;5015031;28;20076;-79
2023/08/01 11:12:45;;;;;;;4.90;2.10;;;16.20;99.90;;;;;;5001235;28;20321;-79
2023/08/01 11:15:13;;;;;;;7.32;2.17;;;16.10;99.90;;;;;;5008049;28;20049;-79
2023/08/01 11:17:46;;;;;;;6.38;2.10;;;16.20;99.90;;;;;;5007726;28;20037;-80
2023/08/01 11:20:13;;;;;;;3.75;1.92;;;16.30;99.90;;;;;;5007306;28;20041;-80
2023/08/01 11:22:57;;;;;;;4.20;1.80;;;16.40;99.90;;;;;;5009946;28;20125;-80
2023/08/01 11:25:35;;;;;;;5.63;1.83;;;16.50;99.90;;;;;;4994083;28;20059;-80
2023/08/01 11:28:13;;;;;;;4.47;2.22;;;16.60;99.90;;;;;;4987686;28;20123;-81
2023/08/01 11:30:40;;;;;;;6.30;2.30;;;16.70;99.90;;;;;;5004813;28;20524;-81
2023/08/01 11:33:23;;;;;;;5.60;2.05;;;17.00;99.90;;;;;;5009007;28;20136;-82
2023/08/01 11:35:57;;;;;;;9.27;2.35;;;17.50;99.90;;;;;;4996045;28;20108;-83
2023/08/01 11:38:42;;;;;;;6.82;2.38;;;18.00;99.90;;;;;;5022680;28;20049;-82
2023/08/01 11:41:08;;;;;;;9.18;2.72;;;18.50;99.90;;;;;;5033850;22;20447;-78
2023/08/01 11:43:43;;;;;;;8.77;2.50;;;18.80;99.90;;;;;;5037051;28;20397;-78
2023/08/01 11:46:10;;;;;;;7.97;2.63;;;19.10;99.90;;;;;;5012431;28;20567;-78
2023/08/01 11:48:36;;;;;;;7.03;2.15;;;19.10;99.90;;;;;;5019763;28;20041;-79
2023/08/01 11:51:02;;;;;;;7.57;2.50;;;18.90;99.90;;;;;;4988364;28;20053;-78
2023/08/01 11:53:29;;;;;;;9.35;2.60;;;18.80;99.90;;;;;;5012035;28;20537;-79
2023/08/01 11:55:56;;;;;;;7.90;2.55;;;18.70;99.90;;;;;;4991261;28;20199;-78
2023/08/01 11:58:36;;;;;;;10.90;2.60;;;18.60;99.90;;;;;;5001815;28;20037;-79
2023/08/01 12:01:10;;;;;;;9.50;2.67;;;18.60;99.90;;;;;;5030376;28;20030;-78
2023/08/01 12:03:46;;;;;;;6.97;2.60;;;18.40;99.90;;;;;;4985516;28;20490;-80
2023/08/01 12:06:13;;;;;;;8.32;2.92;;;18.30;99.90;;;;;;5000606;28;20087;-80
2023/08/01 12:08:41;;;;;;;8.90;2.70;;;18.20;99.90;;;;;;5007767;28;20415;-79
2023/08/01 12:11:18;;;;;;;9.35;2.85;;;18.10;99.90;;;;;;5028041;28;20417;-79
2023/08/01 12:13:44;;;;;;;7.25;2.75;;;18.10;99.90;;;;;;5010119;28;20049;-78
2023/08/01 12:16:09;;;;;;;8.63;2.83;;;18.40;99.90;;;;;;5031667;28;20132;-80
2023/08/01 12:18:37;;;;;;;9.73;3.10;;;18.70;99.90;;;;;;5021231;28;20042;-79
2023/08/01 12:21:05;;;;;;;12.02;2.80;;;19.10;99.90;;;;;;4995224;28;20064;-78
2023/08/01 12:23:31;;;;;;;7.75;2.50;;;19.40;99.90;;;;;;4991320;28;20056;-78
2023/08/01 12:25:57;;;;;;;9.68;2.85;;;19.50;99.90;;;;;;5002321;28;20037;-78
2023/08/01 12:28:22;;;;;;;9.52;2.85;;;19.60;99.90;;;;;;5007266;28;20071;-79
2023/08/01 12:30:49;;;;;;;32.50;3.97;;;19.60;99.90;;;;;;5025806;28;20033;-78
2023/08/01 12:33:14;;;;;;;12.40;3.65;;;19.50;99.90;;;;;;5012469;28;20067;-78
2023/08/01 12:35:43;;;;;;;6.75;2.38;;;19.30;99.90;;;;;;5016405;28;20108;-77
2023/08/01 12:38:09;;;;;;;7.90;2.72;;;19.10;99.90;;;;;;5030021;28;20546;-78
2023/08/01 12:40:35;;;;;;;10.48;2.50;;;19.20;99.90;;;;;;5020313;28;20037;-78
2023/08/01 12:43:01;;;;;;;7.30;2.20;;;19.20;99.90;;;;;;5034629;28;20433;-78